Hauptseite
METAR-TAF:

METAR-TAF

Flughäfen :

Nancy, Frankreich

Breite: 48-41N, Länge: 006-13E, Höhe: 225 m

Beobachtung

Neuester Wetterbericht von vor 21 Minuten, um 00:00 UTC
Wind 5 kt aus Süd/Südost
Temperatur 1°C
Luftfeuchtigkeit 93%
Luftdruck 1003 hPa
Sichtweite 10 km oder mehr
Aufgelockert bewölkt in der Höhe von 1300 ft

METAR: LFSN 130000Z AUTO 15005KT 9999 SCT013 01/00 Q1003

Zeit: 01:21 (00:21 UTC)


TAF: fehlend

Wetterbeobachtungen und Prognosen von mehr als 4000 Flughäfen (METAR und TAF Bericht).

Die verfügbaren Stationen werden durch gelbe und rote Markierungen auf der Karte dargestellt.

Führen Sie die Maus auf sie, um den Namen der Station zu sehen.

Darauf klicken, um die Beobachtung von Wetterbeobachtungen und Prognosen zu sehen.

Um die Karte zu ändern : klicken Sie auf den grünen Tasten mit einem schwarzen Kreuz Zum Vergrößern, auf den grünen Button mit einem Gedankenstrich zu verkleinern, oder auf die grünen Pfeile für benachbarte Karten.


METAR-TAF: